sensor_id;sensor_type;location;lat;lon;timestamp;temperature;humidity
5461;DHT22;2753;49.196;8.286;2022-10-13T00:00:31;13.00;95.10
5461;DHT22;2753;49.196;8.286;2022-10-13T00:03:00;13.10;95.00
5461;DHT22;2753;49.196;8.286;2022-10-13T00:05:27;13.10;94.90
5461;DHT22;2753;49.196;8.286;2022-10-13T00:07:53;13.00;94.90
5461;DHT22;2753;49.196;8.286;2022-10-13T00:10:19;12.90;95.00
5461;DHT22;2753;49.196;8.286;2022-10-13T00:12:44;12.70;95.40
5461;DHT22;2753;49.196;8.286;2022-10-13T00:15:10;12.70;95.60
5461;DHT22;2753;49.196;8.286;2022-10-13T00:17:36;12.80;95.60
5461;DHT22;2753;49.196;8.286;2022-10-13T00:20:03;12.70;95.60
5461;DHT22;2753;49.196;8.286;2022-10-13T00:22:29;12.80;95.50
5461;DHT22;2753;49.196;8.286;2022-10-13T00:24:55;12.80;95.50
5461;DHT22;2753;49.196;8.286;2022-10-13T00:27:21;12.70;95.50
5461;DHT22;2753;49.196;8.286;2022-10-13T00:29:46;12.70;95.80
5461;DHT22;2753;49.196;8.286;2022-10-13T00:32:12;12.60;95.60
5461;DHT22;2753;49.196;8.286;2022-10-13T00:34:38;12.80;95.60
5461;DHT22;2753;49.196;8.286;2022-10-13T00:37:04;12.70;95.40
5461;DHT22;2753;49.196;8.286;2022-10-13T00:39:31;12.70;95.60
5461;DHT22;2753;49.196;8.286;2022-10-13T00:41:57;12.70;95.50
5461;DHT22;2753;49.196;8.286;2022-10-13T00:45:03;12.70;95.40
5461;DHT22;2753;49.196;8.286;2022-10-13T00:47:36;12.70;95.60
5461;DHT22;2753;49.196;8.286;2022-10-13T00:50:04;12.70;95.50
5461;DHT22;2753;49.196;8.286;2022-10-13T00:52:30;12.60;95.70
5461;DHT22;2753;49.196;8.286;2022-10-13T00:54:58;12.50;95.60
5461;DHT22;2753;49.196;8.286;2022-10-13T00:57:24;12.50;95.60
5461;DHT22;2753;49.196;8.286;2022-10-13T00:59:50;12.40;95.60
5461;DHT22;2753;49.196;8.286;2022-10-13T01:02:16;12.40;95.60
5461;DHT22;2753;49.196;8.286;2022-10-13T01:04:45;12.50;95.40
5461;DHT22;2753;49.196;8.286;2022-10-13T01:07:13;12.40;95.40
5461;DHT22;2753;49.196;8.286;2022-10-13T01:09:40;12.50;95.30
5461;DHT22;2753;49.196;8.286;2022-10-13T01:17:49;12.40;95.20
5461;DHT22;2753;49.196;8.286;2022-10-13T01:26:14;12.30;95.50
5461;DHT22;2753;49.196;8.286;2022-10-13T01:32:07;12.20;95.40
5461;DHT22;2753;49.196;8.286;2022-10-13T01:37:21;12.20;95.50
5461;DHT22;2753;49.196;8.286;2022-10-13T01:42:25;12.20;95.20
5461;DHT22;2753;49.196;8.286;2022-10-13T01:44:55;12.20;95.20
5461;DHT22;2753;49.196;8.286;2022-10-13T01:47:24;12.10;95.10
5461;DHT22;2753;49.196;8.286;2022-10-13T01:49:52;12.10;95.10
5461;DHT22;2753;49.196;8.286;2022-10-13T01:52:21;12.00;95.40
5461;DHT22;2753;49.196;8.286;2022-10-13T01:54:53;12.00;95.10
5461;DHT22;2753;49.196;8.286;2022-10-13T01:57:31;12.00;95.10
5461;DHT22;2753;49.196;8.286;2022-10-13T02:00:05;12.00;95.10
5461;DHT22;2753;49.196;8.286;2022-10-13T02:05:25;12.00;95.20
5461;DHT22;2753;49.196;8.286;2022-10-13T02:07:58;12.00;95.30
5461;DHT22;2753;49.196;8.286;2022-10-13T02:10:34;12.00;95.10
5461;DHT22;2753;49.196;8.286;2022-10-13T02:13:05;12.00;95.20
5461;DHT22;2753;49.196;8.286;2022-10-13T02:15:53;12.00;95.30
5461;DHT22;2753;49.196;8.286;2022-10-13T02:18:25;12.00;95.30
5461;DHT22;2753;49.196;8.286;2022-10-13T02:20:53;12.00;95.30
5461;DHT22;2753;49.196;8.286;2022-10-13T02:23:19;12.00;95.30
5461;DHT22;2753;49.196;8.286;2022-10-13T02:25:46;11.90;95.40
5461;DHT22;2753;49.196;8.286;2022-10-13T02:28:14;11.90;95.40
5461;DHT22;2753;49.196;8.286;2022-10-13T02:30:40;11.90;95.40
5461;DHT22;2753;49.196;8.286;2022-10-13T02:33:07;11.80;95.60
5461;DHT22;2753;49.196;8.286;2022-10-13T02:35:33;11.80;95.70
5461;DHT22;2753;49.196;8.286;2022-10-13T02:37:59;11.80;95.80
5461;DHT22;2753;49.196;8.286;2022-10-13T02:40:26;11.70;95.80
5461;DHT22;2753;49.196;8.286;2022-10-13T02:42:51;11.80;95.90
5461;DHT22;2753;49.196;8.286;2022-10-13T02:45:17;11.70;96.30
5461;DHT22;2753;49.196;8.286;2022-10-13T02:47:43;11.60;96.20
5461;DHT22;2753;49.196;8.286;2022-10-13T02:50:09;11.70;96.00
5461;DHT22;2753;49.196;8.286;2022-10-13T02:52:35;11.80;96.00
5461;DHT22;2753;49.196;8.286;2022-10-13T02:55:01;11.70;96.20
5461;DHT22;2753;49.196;8.286;2022-10-13T02:57:27;11.70;96.20
5461;DHT22;2753;49.196;8.286;2022-10-13T02:59:53;11.80;96.10
5461;DHT22;2753;49.196;8.286;2022-10-13T03:02:18;11.70;96.30
5461;DHT22;2753;49.196;8.286;2022-10-13T03:04:44;11.70;96.30
5461;DHT22;2753;49.196;8.286;2022-10-13T03:07:10;11.70;96.30
5461;DHT22;2753;49.196;8.286;2022-10-13T03:09:36;11.70;96.30
5461;DHT22;2753;49.196;8.286;2022-10-13T03:12:01;11.80;96.20
5461;DHT22;2753;49.196;8.286;2022-10-13T03:14:27;11.80;96.20
5461;DHT22;2753;49.196;8.286;2022-10-13T03:16:53;11.80;96.40
5461;DHT22;2753;49.196;8.286;2022-10-13T03:19:18;11.70;96.50
5461;DHT22;2753;49.196;8.286;2022-10-13T03:21:44;11.80;96.50
5461;DHT22;2753;49.196;8.286;2022-10-13T03:24:10;11.80;96.60
5461;DHT22;2753;49.196;8.286;2022-10-13T03:26:35;11.70;96.60
5461;DHT22;2753;49.196;8.286;2022-10-13T03:29:01;11.80;96.50
5461;DHT22;2753;49.196;8.286;2022-10-13T03:31:28;11.70;96.80
5461;DHT22;2753;49.196;8.286;2022-10-13T03:33:53;11.70;96.80
5461;DHT22;2753;49.196;8.286;2022-10-13T03:36:19;11.70;96.70
5461;DHT22;2753;49.196;8.286;2022-10-13T03:38:45;11.70;96.60
5461;DHT22;2753;49.196;8.286;2022-10-13T03:41:14;11.70;96.70
5461;DHT22;2753;49.196;8.286;2022-10-13T03:43:40;11.70;96.70
5461;DHT22;2753;49.196;8.286;2022-10-13T03:46:07;11.80;96.70
5461;DHT22;2753;49.196;8.286;2022-10-13T03:48:35;11.80;96.70
5461;DHT22;2753;49.196;8.286;2022-10-13T03:51:10;11.80;96.90
5461;DHT22;2753;49.196;8.286;2022-10-13T03:53:36;11.80;96.80
5461;DHT22;2753;49.196;8.286;2022-10-13T03:56:03;11.80;96.90
5461;DHT22;2753;49.196;8.286;2022-10-13T03:58:29;11.70;96.80
5461;DHT22;2753;49.196;8.286;2022-10-13T04:00:55;11.80;97.00
5461;DHT22;2753;49.196;8.286;2022-10-13T04:03:21;11.80;97.00
5461;DHT22;2753;49.196;8.286;2022-10-13T04:05:47;11.80;97.00
5461;DHT22;2753;49.196;8.286;2022-10-13T04:08:13;11.80;97.10
5461;DHT22;2753;49.196;8.286;2022-10-13T04:10:40;11.80;97.20
5461;DHT22;2753;49.196;8.286;2022-10-13T04:13:05;11.70;97.30
5461;DHT22;2753;49.196;8.286;2022-10-13T04:15:38;11.80;97.30
5461;DHT22;2753;49.196;8.286;2022-10-13T04:18:05;11.70;97.30
5461;DHT22;2753;49.196;8.286;2022-10-13T04:20:38;11.70;97.40
5461;DHT22;2753;49.196;8.286;2022-10-13T04:23:04;11.70;98.00
5461;DHT22;2753;49.196;8.286;2022-10-13T04:25:32;11.60;97.70
5461;DHT22;2753;49.196;8.286;2022-10-13T04:27:58;11.70;98.20
5461;DHT22;2753;49.196;8.286;2022-10-13T04:30:24;11.70;98.10
5461;DHT22;2753;49.196;8.286;2022-10-13T04:32:49;11.70;98.10
5461;DHT22;2753;49.196;8.286;2022-10-13T04:35:15;11.60;98.80
5461;DHT22;2753;49.196;8.286;2022-10-13T04:37:41;11.70;98.90
5461;DHT22;2753;49.196;8.286;2022-10-13T04:40:07;11.60;99.20
5461;DHT22;2753;49.196;8.286;2022-10-13T04:42:33;11.50;99.50
5461;DHT22;2753;49.196;8.286;2022-10-13T04:44:58;12.00;99.90
5461;DHT22;2753;49.196;8.286;2022-10-13T04:47:24;11.60;99.40
5461;DHT22;2753;49.196;8.286;2022-10-13T04:49:49;11.60;99.50
5461;DHT22;2753;49.196;8.286;2022-10-13T04:52:15;11.60;99.70
5461;DHT22;2753;49.196;8.286;2022-10-13T04:54:42;11.50;99.60
5461;DHT22;2753;49.196;8.286;2022-10-13T04:57:07;11.60;99.40
5461;DHT22;2753;49.196;8.286;2022-10-13T04:59:33;11.60;99.40
5461;DHT22;2753;49.196;8.286;2022-10-13T05:01:59;11.70;99.60
5461;DHT22;2753;49.196;8.286;2022-10-13T05:04:24;11.50;99.90
5461;DHT22;2753;49.196;8.286;2022-10-13T05:06:50;11.50;99.90
5461;DHT22;2753;49.196;8.286;2022-10-13T05:09:15;11.50;99.90
5461;DHT22;2753;49.196;8.286;2022-10-13T05:11:41;11.60;99.90
5461;DHT22;2753;49.196;8.286;2022-10-13T05:14:07;11.60;99.90
5461;DHT22;2753;49.196;8.286;2022-10-13T05:16:33;11.50;99.90
5461;DHT22;2753;49.196;8.286;2022-10-13T05:18:58;11.40;99.90
5461;DHT22;2753;49.196;8.286;2022-10-13T05:21:26;11.40;99.90
5461;DHT22;2753;49.196;8.286;2022-10-13T05:23:53;11.40;99.90
5461;DHT22;2753;49.196;8.286;2022-10-13T05:26:20;11.20;99.90
5461;DHT22;2753;49.196;8.286;2022-10-13T05:28:47;11.10;99.90
5461;DHT22;2753;49.196;8.286;2022-10-13T05:31:21;11.10;99.90
5461;DHT22;2753;49.196;8.286;2022-10-13T05:33:47;11.10;99.90
5461;DHT22;2753;49.196;8.286;2022-10-13T05:36:17;11.20;99.90
5461;DHT22;2753;49.196;8.286;2022-10-13T05:38:43;11.20;99.90
5461;DHT22;2753;49.196;8.286;2022-10-13T05:41:11;11.20;99.90
5461;DHT22;2753;49.196;8.286;2022-10-13T05:43:41;11.20;99.90
5461;DHT22;2753;49.196;8.286;2022-10-13T05:46:07;11.30;99.90
5461;DHT22;2753;49.196;8.286;2022-10-13T05:48:33;11.40;99.90
5461;DHT22;2753;49.196;8.286;2022-10-13T05:51:00;11.40;99.90
5461;DHT22;2753;49.196;8.286;2022-10-13T05:53:28;11.40;99.90
5461;DHT22;2753;49.196;8.286;2022-10-13T05:55:57;11.40;99.90
5461;DHT22;2753;49.196;8.286;2022-10-13T05:58:23;11.40;99.90
5461;DHT22;2753;49.196;8.286;2022-10-13T06:00:49;11.40;99.90
5461;DHT22;2753;49.196;8.286;2022-10-13T06:03:19;11.40;99.90
5461;DHT22;2753;49.196;8.286;2022-10-13T06:05:45;11.40;99.90
5461;DHT22;2753;49.196;8.286;2022-10-13T06:08:13;11.40;99.90
5461;DHT22;2753;49.196;8.286;2022-10-13T06:10:40;11.40;99.90
5461;DHT22;2753;49.196;8.286;2022-10-13T06:13:06;11.40;99.90
5461;DHT22;2753;49.196;8.286;2022-10-13T06:15:32;11.40;99.90
5461;DHT22;2753;49.196;8.286;2022-10-13T06:17:57;11.40;99.90
5461;DHT22;2753;49.196;8.286;2022-10-13T06:20:23;11.40;99.90
5461;DHT22;2753;49.196;8.286;2022-10-13T06:22:49;11.40;99.90
5461;DHT22;2753;49.196;8.286;2022-10-13T06:25:15;11.40;99.90
5461;DHT22;2753;49.196;8.286;2022-10-13T06:27:41;11.40;99.90
5461;DHT22;2753;49.196;8.286;2022-10-13T06:30:08;11.40;99.90
5461;DHT22;2753;49.196;8.286;2022-10-13T06:32:33;11.40;99.90
5461;DHT22;2753;49.196;8.286;2022-10-13T06:34:59;11.40;99.90
5461;DHT22;2753;49.196;8.286;2022-10-13T06:37:25;11.40;99.90
5461;DHT22;2753;49.196;8.286;2022-10-13T06:39:50;11.40;99.90
5461;DHT22;2753;49.196;8.286;2022-10-13T06:42:16;11.40;99.90
5461;DHT22;2753;49.196;8.286;2022-10-13T06:44:42;11.50;99.90
5461;DHT22;2753;49.196;8.286;2022-10-13T06:47:08;11.40;99.90
5461;DHT22;2753;49.196;8.286;2022-10-13T06:49:34;11.40;99.90
5461;DHT22;2753;49.196;8.286;2022-10-13T06:52:00;11.40;99.90
5461;DHT22;2753;49.196;8.286;2022-10-13T06:54:26;11.40;99.90
5461;DHT22;2753;49.196;8.286;2022-10-13T06:56:51;11.40;99.90
5461;DHT22;2753;49.196;8.286;2022-10-13T06:59:17;11.40;99.90
5461;DHT22;2753;49.196;8.286;2022-10-13T07:01:43;11.40;99.90
5461;DHT22;2753;49.196;8.286;2022-10-13T07:04:09;11.30;99.90
5461;DHT22;2753;49.196;8.286;2022-10-13T07:06:34;11.30;99.90
5461;DHT22;2753;49.196;8.286;2022-10-13T07:09:04;11.40;99.90
5461;DHT22;2753;49.196;8.286;2022-10-13T07:11:30;11.40;99.90
5461;DHT22;2753;49.196;8.286;2022-10-13T07:13:56;11.50;99.90
5461;DHT22;2753;49.196;8.286;2022-10-13T07:16:22;11.50;99.90
5461;DHT22;2753;49.196;8.286;2022-10-13T07:18:47;11.50;99.90
5461;DHT22;2753;49.196;8.286;2022-10-13T07:21:13;11.40;99.90
5461;DHT22;2753;49.196;8.286;2022-10-13T07:23:39;11.50;99.90
5461;DHT22;2753;49.196;8.286;2022-10-13T07:26:13;11.40;99.90
5461;DHT22;2753;49.196;8.286;2022-10-13T07:28:39;11.40;99.90
5461;DHT22;2753;49.196;8.286;2022-10-13T07:31:14;11.40;99.90
5461;DHT22;2753;49.196;8.286;2022-10-13T07:33:43;11.50;99.90
5461;DHT22;2753;49.196;8.286;2022-10-13T07:36:10;11.50;99.90
5461;DHT22;2753;49.196;8.286;2022-10-13T07:38:36;11.60;99.90
5461;DHT22;2753;49.196;8.286;2022-10-13T07:41:03;11.60;99.90
5461;DHT22;2753;49.196;8.286;2022-10-13T07:43:29;11.60;99.90
5461;DHT22;2753;49.196;8.286;2022-10-13T07:45:58;11.60;99.90
5461;DHT22;2753;49.196;8.286;2022-10-13T07:48:24;11.70;99.90
5461;DHT22;2753;49.196;8.286;2022-10-13T07:50:50;11.70;99.90
5461;DHT22;2753;49.196;8.286;2022-10-13T07:53:16;11.80;99.90
5461;DHT22;2753;49.196;8.286;2022-10-13T07:55:42;11.80;99.90
5461;DHT22;2753;49.196;8.286;2022-10-13T07:58:07;11.70;99.90
5461;DHT22;2753;49.196;8.286;2022-10-13T08:00:33;11.80;99.90
5461;DHT22;2753;49.196;8.286;2022-10-13T08:02:59;11.80;99.90
5461;DHT22;2753;49.196;8.286;2022-10-13T08:05:25;11.80;99.90
5461;DHT22;2753;49.196;8.286;2022-10-13T08:07:51;11.80;99.90
5461;DHT22;2753;49.196;8.286;2022-10-13T08:10:16;11.80;99.90
5461;DHT22;2753;49.196;8.286;2022-10-13T08:12:42;11.70;99.90
5461;DHT22;2753;49.196;8.286;2022-10-13T08:15:09;11.80;99.90
5461;DHT22;2753;49.196;8.286;2022-10-13T08:17:34;11.80;99.90
5461;DHT22;2753;49.196;8.286;2022-10-13T08:20:01;11.80;99.90
5461;DHT22;2753;49.196;8.286;2022-10-13T08:22:27;11.90;99.90
5461;DHT22;2753;49.196;8.286;2022-10-13T08:24:53;11.80;99.90
5461;DHT22;2753;49.196;8.286;2022-10-13T08:27:21;11.90;99.90
5461;DHT22;2753;49.196;8.286;2022-10-13T08:29:48;11.80;99.90
5461;DHT22;2753;49.196;8.286;2022-10-13T08:32:14;11.80;99.90
5461;DHT22;2753;49.196;8.286;2022-10-13T08:34:40;11.80;99.90
5461;DHT22;2753;49.196;8.286;2022-10-13T08:37:12;11.80;99.90
5461;DHT22;2753;49.196;8.286;2022-10-13T08:39:38;11.90;99.90
5461;DHT22;2753;49.196;8.286;2022-10-13T08:42:16;11.90;99.90
5461;DHT22;2753;49.196;8.286;2022-10-13T08:44:45;11.80;99.90
5461;DHT22;2753;49.196;8.286;2022-10-13T08:50:00;11.90;99.90
5461;DHT22;2753;49.196;8.286;2022-10-13T08:52:29;11.90;99.90
5461;DHT22;2753;49.196;8.286;2022-10-13T08:55:12;12.00;99.90
5461;DHT22;2753;49.196;8.286;2022-10-13T08:57:40;12.00;99.90
5461;DHT22;2753;49.196;8.286;2022-10-13T09:00:09;11.40;99.90
5461;DHT22;2753;49.196;8.286;2022-10-13T09:02:36;12.00;99.90
5461;DHT22;2753;49.196;8.286;2022-10-13T09:05:03;12.00;99.90
5461;DHT22;2753;49.196;8.286;2022-10-13T09:07:35;12.00;99.90
5461;DHT22;2753;49.196;8.286;2022-10-13T09:10:03;12.10;99.90
5461;DHT22;2753;49.196;8.286;2022-10-13T09:12:29;12.10;99.90
5461;DHT22;2753;49.196;8.286;2022-10-13T09:15:08;12.10;99.90
5461;DHT22;2753;49.196;8.286;2022-10-13T09:17:36;12.10;99.90
5461;DHT22;2753;49.196;8.286;2022-10-13T09:20:22;12.20;99.90
5461;DHT22;2753;49.196;8.286;2022-10-13T09:23:20;12.20;99.90
5461;DHT22;2753;49.196;8.286;2022-10-13T09:25:50;12.20;99.90
5461;DHT22;2753;49.196;8.286;2022-10-13T09:28:23;12.20;99.90
5461;DHT22;2753;49.196;8.286;2022-10-13T09:31:01;12.30;99.90
5461;DHT22;2753;49.196;8.286;2022-10-13T09:33:28;12.30;99.90
5461;DHT22;2753;49.196;8.286;2022-10-13T09:38:27;12.30;99.90
5461;DHT22;2753;49.196;8.286;2022-10-13T09:41:05;12.40;99.90
5461;DHT22;2753;49.196;8.286;2022-10-13T09:44:06;12.40;99.90
5461;DHT22;2753;49.196;8.286;2022-10-13T09:46:38;12.40;99.90
5461;DHT22;2753;49.196;8.286;2022-10-13T09:49:41;12.40;99.90
5461;DHT22;2753;49.196;8.286;2022-10-13T09:52:16;12.50;99.90
5461;DHT22;2753;49.196;8.286;2022-10-13T10:08:19;12.70;99.90
5461;DHT22;2753;49.196;8.286;2022-10-13T10:10:45;12.70;99.90
5461;DHT22;2753;49.196;8.286;2022-10-13T10:13:12;12.70;99.90
5461;DHT22;2753;49.196;8.286;2022-10-13T10:15:49;12.80;99.90
5461;DHT22;2753;49.196;8.286;2022-10-13T10:24:21;12.80;99.90
5461;DHT22;2753;49.196;8.286;2022-10-13T10:26:56;12.90;99.90
5461;DHT22;2753;49.196;8.286;2022-10-13T10:29:49;12.90;99.90
5461;DHT22;2753;49.196;8.286;2022-10-13T10:32:46;13.00;99.90
5461;DHT22;2753;49.196;8.286;2022-10-13T10:35:32;13.00;99.90
5461;DHT22;2753;49.196;8.286;2022-10-13T10:43:51;13.30;99.90
5461;DHT22;2753;49.196;8.286;2022-10-13T10:46:24;13.40;99.90
5461;DHT22;2753;49.196;8.286;2022-10-13T10:48:57;13.40;99.90
5461;DHT22;2753;49.196;8.286;2022-10-13T10:51:31;13.60;99.90
5461;DHT22;2753;49.196;8.286;2022-10-13T10:54:16;13.60;99.90
5461;DHT22;2753;49.196;8.286;2022-10-13T10:56:50;13.70;99.90
5461;DHT22;2753;49.196;8.286;2022-10-13T10:59:24;13.70;99.90
5461;DHT22;2753;49.196;8.286;2022-10-13T11:02:01;13.70;99.90
5461;DHT22;2753;49.196;8.286;2022-10-13T11:04:43;13.70;99.90
5461;DHT22;2753;49.196;8.286;2022-10-13T11:12:25;14.00;99.90
5461;DHT22;2753;49.196;8.286;2022-10-13T11:17:30;14.10;99.90
5461;DHT22;2753;49.196;8.286;2022-10-13T11:19:57;14.10;99.90
5461;DHT22;2753;49.196;8.286;2022-10-13T11:22:32;14.30;99.90
5461;DHT22;2753;49.196;8.286;2022-10-13T11:41:33;14.80;99.90
5461;DHT22;2753;49.196;8.286;2022-10-13T11:44:20;14.90;99.90
5461;DHT22;2753;49.196;8.286;2022-10-13T11:47:01;15.20;99.90
5461;DHT22;2753;49.196;8.286;2022-10-13T11:55:17;15.40;99.90
5461;DHT22;2753;49.196;8.286;2022-10-13T11:57:45;15.40;99.90
5461;DHT22;2753;49.196;8.286;2022-10-13T12:00:16;15.30;99.90
5461;DHT22;2753;49.196;8.286;2022-10-13T12:02:50;15.20;99.90
5461;DHT22;2753;49.196;8.286;2022-10-13T12:05:27;15.20;99.90
5461;DHT22;2753;49.196;8.286;2022-10-13T12:07:57;15.20;99.90
5461;DHT22;2753;49.196;8.286;2022-10-13T12:12:54;15.20;99.90
5461;DHT22;2753;49.196;8.286;2022-10-13T12:17:57;15.20;99.90
5461;DHT22;2753;49.196;8.286;2022-10-13T12:20:26;15.20;99.90
5461;DHT22;2753;49.196;8.286;2022-10-13T12:22:53;15.20;99.90
5461;DHT22;2753;49.196;8.286;2022-10-13T12:25:21;15.20;99.90
5461;DHT22;2753;49.196;8.286;2022-10-13T12:27:50;15.20;99.90
5461;DHT22;2753;49.196;8.286;2022-10-13T12:30:24;15.20;99.90
5461;DHT22;2753;49.196;8.286;2022-10-13T12:32:53;15.20;99.90
5461;DHT22;2753;49.196;8.286;2022-10-13T12:37:48;15.30;99.90
5461;DHT22;2753;49.196;8.286;2022-10-13T12:40:17;15.30;99.90
5461;DHT22;2753;49.196;8.286;2022-10-13T12:42:43;15.30;99.90
5461;DHT22;2753;49.196;8.286;2022-10-13T12:45:14;15.30;99.90
5461;DHT22;2753;49.196;8.286;2022-10-13T12:55:30;15.40;99.90
5461;DHT22;2753;49.196;8.286;2022-10-13T12:57:56;15.40;99.90
5461;DHT22;2753;49.196;8.286;2022-10-13T13:00:26;15.40;99.90
5461;DHT22;2753;49.196;8.286;2022-10-13T13:03:03;15.40;99.90
5461;DHT22;2753;49.196;8.286;2022-10-13T13:05:35;15.40;99.90
5461;DHT22;2753;49.196;8.286;2022-10-13T13:08:03;15.40;99.90
5461;DHT22;2753;49.196;8.286;2022-10-13T13:10:29;15.40;99.90
5461;DHT22;2753;49.196;8.286;2022-10-13T13:13:11;15.50;99.90
5461;DHT22;2753;49.196;8.286;2022-10-13T13:15:38;15.50;99.90
5461;DHT22;2753;49.196;8.286;2022-10-13T13:18:30;15.50;99.90
5461;DHT22;2753;49.196;8.286;2022-10-13T13:21:00;15.50;99.90
5461;DHT22;2753;49.196;8.286;2022-10-13T13:23:26;15.60;99.90
5461;DHT22;2753;49.196;8.286;2022-10-13T13:26:11;15.60;99.90
5461;DHT22;2753;49.196;8.286;2022-10-13T13:28:46;15.60;99.90
5461;DHT22;2753;49.196;8.286;2022-10-13T13:31:14;15.70;99.90
5461;DHT22;2753;49.196;8.286;2022-10-13T13:33:39;15.80;99.90
5461;DHT22;2753;49.196;8.286;2022-10-13T13:36:23;15.90;99.90
5461;DHT22;2753;49.196;8.286;2022-10-13T13:38:49;15.90;99.90
5461;DHT22;2753;49.196;8.286;2022-10-13T13:41:15;15.80;99.90
5461;DHT22;2753;49.196;8.286;2022-10-13T13:43:41;15.80;99.90
5461;DHT22;2753;49.196;8.286;2022-10-13T13:46:25;15.80;99.90
5461;DHT22;2753;49.196;8.286;2022-10-13T13:48:52;15.80;99.90
5461;DHT22;2753;49.196;8.286;2022-10-13T13:51:18;15.80;99.90
5461;DHT22;2753;49.196;8.286;2022-10-13T13:53:44;15.80;99.90
5461;DHT22;2753;49.196;8.286;2022-10-13T13:56:15;15.80;99.90
5461;DHT22;2753;49.196;8.286;2022-10-13T13:58:41;15.80;99.90
5461;DHT22;2753;49.196;8.286;2022-10-13T14:01:07;15.80;99.90
5461;DHT22;2753;49.196;8.286;2022-10-13T14:03:33;15.80;99.90
5461;DHT22;2753;49.196;8.286;2022-10-13T14:05:59;15.80;99.90
5461;DHT22;2753;49.196;8.286;2022-10-13T14:08:25;15.80;99.90
5461;DHT22;2753;49.196;8.286;2022-10-13T14:10:50;15.80;99.90
5461;DHT22;2753;49.196;8.286;2022-10-13T14:13:16;15.80;99.90
5461;DHT22;2753;49.196;8.286;2022-10-13T14:15:42;15.90;99.90
5461;DHT22;2753;49.196;8.286;2022-10-13T14:18:07;15.90;99.90
5461;DHT22;2753;49.196;8.286;2022-10-13T14:20:33;15.90;99.90
5461;DHT22;2753;49.196;8.286;2022-10-13T14:22:59;15.90;99.90
5461;DHT22;2753;49.196;8.286;2022-10-13T14:25:24;15.80;99.90
5461;DHT22;2753;49.196;8.286;2022-10-13T14:27:50;15.80;99.90
5461;DHT22;2753;49.196;8.286;2022-10-13T14:30:16;15.80;99.90
5461;DHT22;2753;49.196;8.286;2022-10-13T14:32:42;15.80;99.90
5461;DHT22;2753;49.196;8.286;2022-10-13T14:35:07;15.80;99.90
5461;DHT22;2753;49.196;8.286;2022-10-13T14:37:33;15.80;99.90
5461;DHT22;2753;49.196;8.286;2022-10-13T14:39:59;15.90;99.90
5461;DHT22;2753;49.196;8.286;2022-10-13T14:42:25;15.90;99.90
5461;DHT22;2753;49.196;8.286;2022-10-13T14:44:50;15.90;99.90
5461;DHT22;2753;49.196;8.286;2022-10-13T14:47:16;15.90;99.90
5461;DHT22;2753;49.196;8.286;2022-10-13T14:49:41;15.80;99.90
5461;DHT22;2753;49.196;8.286;2022-10-13T14:52:07;15.80;99.90
5461;DHT22;2753;49.196;8.286;2022-10-13T14:54:34;15.80;99.90
5461;DHT22;2753;49.196;8.286;2022-10-13T14:56:59;15.80;99.90
5461;DHT22;2753;49.196;8.286;2022-10-13T14:59:29;15.80;99.90
5461;DHT22;2753;49.196;8.286;2022-10-13T15:01:55;15.80;99.90
5461;DHT22;2753;49.196;8.286;2022-10-13T15:04:21;15.80;99.90
5461;DHT22;2753;49.196;8.286;2022-10-13T15:06:46;15.80;99.90
5461;DHT22;2753;49.196;8.286;2022-10-13T15:09:12;15.80;99.90
5461;DHT22;2753;49.196;8.286;2022-10-13T15:11:38;15.80;99.90
5461;DHT22;2753;49.196;8.286;2022-10-13T15:14:03;15.80;99.90
5461;DHT22;2753;49.196;8.286;2022-10-13T15:16:30;15.80;99.90
5461;DHT22;2753;49.196;8.286;2022-10-13T15:18:58;15.70;99.90
5461;DHT22;2753;49.196;8.286;2022-10-13T15:21:24;15.70;99.90
5461;DHT22;2753;49.196;8.286;2022-10-13T15:23:50;15.70;99.90
5461;DHT22;2753;49.196;8.286;2022-10-13T15:26:17;15.70;99.90
5461;DHT22;2753;49.196;8.286;2022-10-13T15:28:46;15.70;99.90
5461;DHT22;2753;49.196;8.286;2022-10-13T15:31:13;15.70;99.90
5461;DHT22;2753;49.196;8.286;2022-10-13T15:33:42;15.70;99.90
5461;DHT22;2753;49.196;8.286;2022-10-13T15:36:09;15.70;99.90
5461;DHT22;2753;49.196;8.286;2022-10-13T15:38:34;15.70;99.90
5461;DHT22;2753;49.196;8.286;2022-10-13T15:41:02;15.70;99.90
5461;DHT22;2753;49.196;8.286;2022-10-13T15:43:28;15.70;99.90
5461;DHT22;2753;49.196;8.286;2022-10-13T15:45:56;15.70;99.90
5461;DHT22;2753;49.196;8.286;2022-10-13T15:48:23;15.70;99.90
5461;DHT22;2753;49.196;8.286;2022-10-13T15:50:49;15.70;99.90
5461;DHT22;2753;49.196;8.286;2022-10-13T15:53:15;15.60;99.90
5461;DHT22;2753;49.196;8.286;2022-10-13T15:55:41;15.60;99.90
5461;DHT22;2753;49.196;8.286;2022-10-13T15:58:06;15.60;99.90
5461;DHT22;2753;49.196;8.286;2022-10-13T16:00:32;15.60;99.90
5461;DHT22;2753;49.196;8.286;2022-10-13T16:02:58;15.60;99.90
5461;DHT22;2753;49.196;8.286;2022-10-13T16:05:24;15.60;99.90
5461;DHT22;2753;49.196;8.286;2022-10-13T16:07:49;15.60;99.90
5461;DHT22;2753;49.196;8.286;2022-10-13T16:10:15;15.60;99.90
5461;DHT22;2753;49.196;8.286;2022-10-13T16:12:42;15.50;99.90
5461;DHT22;2753;49.196;8.286;2022-10-13T16:15:09;15.50;99.90
5461;DHT22;2753;49.196;8.286;2022-10-13T16:17:35;15.50;99.90
5461;DHT22;2753;49.196;8.286;2022-10-13T16:20:01;15.50;99.90
5461;DHT22;2753;49.196;8.286;2022-10-13T16:22:27;15.50;99.90
5461;DHT22;2753;49.196;8.286;2022-10-13T16:24:52;15.50;99.90
5461;DHT22;2753;49.196;8.286;2022-10-13T16:27:18;15.50;99.90
5461;DHT22;2753;49.196;8.286;2022-10-13T16:29:44;15.50;99.90
5461;DHT22;2753;49.196;8.286;2022-10-13T16:32:09;15.50;99.90
5461;DHT22;2753;49.196;8.286;2022-10-13T16:34:35;15.50;99.90
5461;DHT22;2753;49.196;8.286;2022-10-13T16:37:02;15.50;99.90
5461;DHT22;2753;49.196;8.286;2022-10-13T16:39:27;15.40;99.90
5461;DHT22;2753;49.196;8.286;2022-10-13T16:41:53;15.40;99.90
5461;DHT22;2753;49.196;8.286;2022-10-13T16:44:19;15.40;99.90
5461;DHT22;2753;49.196;8.286;2022-10-13T16:46:45;15.40;99.90
5461;DHT22;2753;49.196;8.286;2022-10-13T16:49:14;15.40;99.90
5461;DHT22;2753;49.196;8.286;2022-10-13T16:51:40;15.40;99.90
5461;DHT22;2753;49.196;8.286;2022-10-13T16:54:05;15.30;99.90
5461;DHT22;2753;49.196;8.286;2022-10-13T16:56:31;15.40;99.90
5461;DHT22;2753;49.196;8.286;2022-10-13T16:59:00;15.30;99.90
5461;DHT22;2753;49.196;8.286;2022-10-13T17:01:26;15.30;99.90
5461;DHT22;2753;49.196;8.286;2022-10-13T17:03:53;15.30;99.90
5461;DHT22;2753;49.196;8.286;2022-10-13T17:06:21;15.30;99.90
5461;DHT22;2753;49.196;8.286;2022-10-13T17:08:47;15.30;99.90
5461;DHT22;2753;49.196;8.286;2022-10-13T17:11:18;15.30;99.90
5461;DHT22;2753;49.196;8.286;2022-10-13T17:13:44;15.30;99.90
5461;DHT22;2753;49.196;8.286;2022-10-13T17:16:10;15.30;99.90
5461;DHT22;2753;49.196;8.286;2022-10-13T17:18:36;15.30;99.90
5461;DHT22;2753;49.196;8.286;2022-10-13T17:21:04;15.30;99.90
5461;DHT22;2753;49.196;8.286;2022-10-13T17:23:30;15.30;99.90
5461;DHT22;2753;49.196;8.286;2022-10-13T17:26:04;15.30;99.90
5461;DHT22;2753;49.196;8.286;2022-10-13T17:28:31;15.20;99.90
5461;DHT22;2753;49.196;8.286;2022-10-13T17:30:58;15.20;99.90
5461;DHT22;2753;49.196;8.286;2022-10-13T17:33:25;15.20;99.90
5461;DHT22;2753;49.196;8.286;2022-10-13T17:35:51;15.20;99.90
5461;DHT22;2753;49.196;8.286;2022-10-13T17:38:17;15.20;99.90
5461;DHT22;2753;49.196;8.286;2022-10-13T17:40:43;15.20;99.90
5461;DHT22;2753;49.196;8.286;2022-10-13T17:43:08;15.20;99.90
5461;DHT22;2753;49.196;8.286;2022-10-13T17:45:34;15.10;99.90
5461;DHT22;2753;49.196;8.286;2022-10-13T17:48:00;15.00;99.90